Summerfield, Texas
Current Conditions -  °F | °C
As of 3:35 AM on Friday 31 Oct 2014 (Local Time) from KHRX Reporting Station
Clear Clear  
Wind Chill: 35°   Ceiling: Unl
Heat Index: 39°   Visibility: 10mi
Dew Point: 33°   Wind: 5mph
Humidity: 80%   Direction: 10°N
Pressure: 30.39"   Gusts: NA
Location:  34.74°N, 102.51°W
Report Text: KHRX 310835Z AUTO 01004KT 10SM CLR 04/01 A3039 RMK AO2 T00370005
Loading
Personal Weather Stations






























Interactive Weather Map New forecast layout! Learn more

10-Day Weather Forecast

Advertisements
Track Severe Weather on mobile